sensor_id;sensor_type;location;lat;lon;timestamp;P1;durP1;ratioP1;P2;durP2;ratioP2
31112;SDS011;17763;48.730;9.136;2023-12-22T00:01:23;3.47;;;1.02;;
31112;SDS011;17763;48.730;9.136;2023-12-22T00:03:51;3.72;;;1.40;;
31112;SDS011;17763;48.730;9.136;2023-12-22T00:06:17;3.65;;;1.50;;
31112;SDS011;17763;48.730;9.136;2023-12-22T00:08:42;6.63;;;2.05;;
31112;SDS011;17763;48.730;9.136;2023-12-22T00:11:08;4.03;;;2.15;;
31112;SDS011;17763;48.730;9.136;2023-12-22T00:13:33;6.63;;;1.85;;
31112;SDS011;17763;48.730;9.136;2023-12-22T00:15:59;5.38;;;2.63;;
31112;SDS011;17763;48.730;9.136;2023-12-22T00:18:28;7.70;;;2.15;;
31112;SDS011;17763;48.730;9.136;2023-12-22T00:20:54;7.47;;;1.73;;
31112;SDS011;17763;48.730;9.136;2023-12-22T00:23:20;4.50;;;1.88;;
31112;SDS011;17763;48.730;9.136;2023-12-22T00:25:45;4.75;;;1.70;;
31112;SDS011;17763;48.730;9.136;2023-12-22T00:28:13;8.32;;;2.42;;
31112;SDS011;17763;48.730;9.136;2023-12-22T00:30:39;5.13;;;1.50;;
31112;SDS011;17763;48.730;9.136;2023-12-22T00:33:04;4.82;;;1.80;;
31112;SDS011;17763;48.730;9.136;2023-12-22T00:35:30;5.60;;;1.42;;
31112;SDS011;17763;48.730;9.136;2023-12-22T00:37:56;4.35;;;1.60;;
31112;SDS011;17763;48.730;9.136;2023-12-22T00:40:24;4.72;;;1.80;;
31112;SDS011;17763;48.730;9.136;2023-12-22T00:42:50;4.80;;;1.45;;
31112;SDS011;17763;48.730;9.136;2023-12-22T00:45:15;4.97;;;1.40;;
31112;SDS011;17763;48.730;9.136;2023-12-22T00:47:41;3.15;;;1.90;;
31112;SDS011;17763;48.730;9.136;2023-12-22T00:50:06;5.78;;;1.65;;
31112;SDS011;17763;48.730;9.136;2023-12-22T00:52:33;4.97;;;1.45;;
31112;SDS011;17763;48.730;9.136;2023-12-22T00:54:59;3.40;;;1.58;;
31112;SDS011;17763;48.730;9.136;2023-12-22T00:57:24;5.93;;;1.30;;
31112;SDS011;17763;48.730;9.136;2023-12-22T00:59:50;4.40;;;1.30;;
31112;SDS011;17763;48.730;9.136;2023-12-22T01:02:16;6.85;;;1.23;;
31112;SDS011;17763;48.730;9.136;2023-12-22T01:04:45;4.07;;;1.40;;
31112;SDS011;17763;48.730;9.136;2023-12-22T01:07:11;3.60;;;1.40;;
31112;SDS011;17763;48.730;9.136;2023-12-22T01:09:37;9.70;;;1.52;;
31112;SDS011;17763;48.730;9.136;2023-12-22T01:12:05;6.05;;;1.75;;
31112;SDS011;17763;48.730;9.136;2023-12-22T01:14:32;2.25;;;1.30;;
31112;SDS011;17763;48.730;9.136;2023-12-22T01:16:58;6.82;;;1.65;;
31112;SDS011;17763;48.730;9.136;2023-12-22T01:19:26;4.80;;;1.85;;
31112;SDS011;17763;48.730;9.136;2023-12-22T01:21:52;5.95;;;1.98;;
31112;SDS011;17763;48.730;9.136;2023-12-22T01:24:18;5.40;;;1.45;;
31112;SDS011;17763;48.730;9.136;2023-12-22T01:26:43;6.68;;;1.73;;
31112;SDS011;17763;48.730;9.136;2023-12-22T01:29:12;5.25;;;1.20;;
31112;SDS011;17763;48.730;9.136;2023-12-22T01:31:40;4.55;;;1.30;;
31112;SDS011;17763;48.730;9.136;2023-12-22T01:34:05;5.03;;;1.75;;
31112;SDS011;17763;48.730;9.136;2023-12-22T01:36:31;3.70;;;1.00;;
31112;SDS011;17763;48.730;9.136;2023-12-22T01:38:57;3.20;;;1.20;;
31112;SDS011;17763;48.730;9.136;2023-12-22T01:41:22;4.47;;;1.10;;
31112;SDS011;17763;48.730;9.136;2023-12-22T01:43:48;4.38;;;1.67;;
31112;SDS011;17763;48.730;9.136;2023-12-22T01:46:13;3.97;;;1.10;;
31112;SDS011;17763;48.730;9.136;2023-12-22T01:48:39;2.03;;;1.00;;
31112;SDS011;17763;48.730;9.136;2023-12-22T01:51:05;2.13;;;1.17;;
31112;SDS011;17763;48.730;9.136;2023-12-22T01:53:32;3.17;;;0.85;;
31112;SDS011;17763;48.730;9.136;2023-12-22T01:55:58;2.40;;;0.98;;
31112;SDS011;17763;48.730;9.136;2023-12-22T01:58:26;3.65;;;1.25;;
31112;SDS011;17763;48.730;9.136;2023-12-22T02:00:54;4.13;;;1.15;;
31112;SDS011;17763;48.730;9.136;2023-12-22T02:03:20;1.45;;;0.70;;
31112;SDS011;17763;48.730;9.136;2023-12-22T02:05:46;2.50;;;0.93;;
31112;SDS011;17763;48.730;9.136;2023-12-22T02:08:12;2.70;;;1.02;;
31112;SDS011;17763;48.730;9.136;2023-12-22T02:10:38;3.28;;;1.13;;
31112;SDS011;17763;48.730;9.136;2023-12-22T02:13:04;2.03;;;0.90;;
31112;SDS011;17763;48.730;9.136;2023-12-22T02:15:30;7.55;;;0.90;;
31112;SDS011;17763;48.730;9.136;2023-12-22T02:20:39;2.63;;;1.13;;
31112;SDS011;17763;48.730;9.136;2023-12-22T02:23:05;2.60;;;1.15;;
31112;SDS011;17763;48.730;9.136;2023-12-22T02:25:31;2.20;;;1.10;;
31112;SDS011;17763;48.730;9.136;2023-12-22T02:27:58;2.20;;;0.90;;
31112;SDS011;17763;48.730;9.136;2023-12-22T02:33:01;4.07;;;1.15;;
31112;SDS011;17763;48.730;9.136;2023-12-22T02:35:30;6.88;;;1.60;;
31112;SDS011;17763;48.730;9.136;2023-12-22T02:37:58;2.63;;;1.33;;
31112;SDS011;17763;48.730;9.136;2023-12-22T02:40:25;3.90;;;1.35;;
31112;SDS011;17763;48.730;9.136;2023-12-22T02:42:52;4.60;;;1.02;;
31112;SDS011;17763;48.730;9.136;2023-12-22T02:45:19;7.40;;;1.92;;
31112;SDS011;17763;48.730;9.136;2023-12-22T02:47:45;3.25;;;1.58;;
31112;SDS011;17763;48.730;9.136;2023-12-22T02:50:11;2.97;;;0.90;;
31112;SDS011;17763;48.730;9.136;2023-12-22T02:52:39;4.60;;;1.48;;
31112;SDS011;17763;48.730;9.136;2023-12-22T02:55:05;2.58;;;1.10;;
31112;SDS011;17763;48.730;9.136;2023-12-22T02:57:31;5.78;;;1.60;;
31112;SDS011;17763;48.730;9.136;2023-12-22T02:59:57;5.07;;;1.35;;
31112;SDS011;17763;48.730;9.136;2023-12-22T03:02:23;5.65;;;1.77;;
31112;SDS011;17763;48.730;9.136;2023-12-22T03:04:49;6.55;;;1.35;;
31112;SDS011;17763;48.730;9.136;2023-12-22T03:07:14;5.75;;;1.75;;
31112;SDS011;17763;48.730;9.136;2023-12-22T03:09:40;4.40;;;1.52;;
31112;SDS011;17763;48.730;9.136;2023-12-22T03:12:07;6.85;;;1.88;;
31112;SDS011;17763;48.730;9.136;2023-12-22T03:14:33;2.58;;;1.75;;
31112;SDS011;17763;48.730;9.136;2023-12-22T03:17:02;4.78;;;1.20;;
31112;SDS011;17763;48.730;9.136;2023-12-22T03:19:29;8.15;;;1.30;;
31112;SDS011;17763;48.730;9.136;2023-12-22T03:21:57;4.20;;;1.10;;
31112;SDS011;17763;48.730;9.136;2023-12-22T03:24:24;2.70;;;1.05;;
31112;SDS011;17763;48.730;9.136;2023-12-22T03:26:50;3.65;;;1.33;;
31112;SDS011;17763;48.730;9.136;2023-12-22T03:29:17;3.35;;;1.13;;
31112;SDS011;17763;48.730;9.136;2023-12-22T03:31:45;5.03;;;1.15;;
31112;SDS011;17763;48.730;9.136;2023-12-22T03:34:11;6.93;;;2.15;;
31112;SDS011;17763;48.730;9.136;2023-12-22T03:36:37;4.38;;;1.27;;
31112;SDS011;17763;48.730;9.136;2023-12-22T03:39:03;5.55;;;1.42;;
31112;SDS011;17763;48.730;9.136;2023-12-22T03:41:29;4.97;;;1.30;;
31112;SDS011;17763;48.730;9.136;2023-12-22T03:43:58;1.75;;;1.30;;
31112;SDS011;17763;48.730;9.136;2023-12-22T03:46:24;3.28;;;1.10;;
31112;SDS011;17763;48.730;9.136;2023-12-22T03:48:50;3.78;;;1.10;;
31112;SDS011;17763;48.730;9.136;2023-12-22T03:51:16;3.65;;;1.20;;
31112;SDS011;17763;48.730;9.136;2023-12-22T03:53:42;5.18;;;1.58;;
31112;SDS011;17763;48.730;9.136;2023-12-22T03:56:08;3.90;;;1.27;;
31112;SDS011;17763;48.730;9.136;2023-12-22T03:58:34;6.63;;;1.30;;
31112;SDS011;17763;48.730;9.136;2023-12-22T04:01:00;3.67;;;1.55;;
31112;SDS011;17763;48.730;9.136;2023-12-22T04:03:26;5.55;;;1.70;;
31112;SDS011;17763;48.730;9.136;2023-12-22T04:05:51;8.15;;;2.00;;
31112;SDS011;17763;48.730;9.136;2023-12-22T04:08:17;12.68;;;2.42;;
31112;SDS011;17763;48.730;9.136;2023-12-22T04:10:45;4.93;;;1.25;;
31112;SDS011;17763;48.730;9.136;2023-12-22T04:13:14;5.32;;;2.13;;
31112;SDS011;17763;48.730;9.136;2023-12-22T04:15:39;6.68;;;2.00;;
31112;SDS011;17763;48.730;9.136;2023-12-22T04:18:05;4.78;;;1.80;;
31112;SDS011;17763;48.730;9.136;2023-12-22T04:20:31;7.85;;;1.60;;
31112;SDS011;17763;48.730;9.136;2023-12-22T04:22:57;5.30;;;2.15;;
31112;SDS011;17763;48.730;9.136;2023-12-22T04:25:22;9.15;;;2.13;;
31112;SDS011;17763;48.730;9.136;2023-12-22T04:27:52;7.47;;;1.83;;
31112;SDS011;17763;48.730;9.136;2023-12-22T04:30:17;6.05;;;1.60;;
31112;SDS011;17763;48.730;9.136;2023-12-22T04:32:45;8.32;;;1.67;;
31112;SDS011;17763;48.730;9.136;2023-12-22T04:35:11;6.68;;;1.95;;
31112;SDS011;17763;48.730;9.136;2023-12-22T04:37:36;6.18;;;1.55;;
31112;SDS011;17763;48.730;9.136;2023-12-22T04:40:02;2.85;;;1.42;;
31112;SDS011;17763;48.730;9.136;2023-12-22T04:42:28;8.50;;;1.27;;
31112;SDS011;17763;48.730;9.136;2023-12-22T04:44:54;4.97;;;1.17;;
31112;SDS011;17763;48.730;9.136;2023-12-22T04:47:19;4.97;;;1.10;;
31112;SDS011;17763;48.730;9.136;2023-12-22T04:49:45;5.53;;;1.35;;
31112;SDS011;17763;48.730;9.136;2023-12-22T04:52:11;3.55;;;1.30;;
31112;SDS011;17763;48.730;9.136;2023-12-22T04:54:37;4.13;;;1.73;;
31112;SDS011;17763;48.730;9.136;2023-12-22T04:57:03;7.05;;;1.45;;
31112;SDS011;17763;48.730;9.136;2023-12-22T04:59:29;5.30;;;1.13;;
31112;SDS011;17763;48.730;9.136;2023-12-22T05:01:55;5.60;;;1.35;;
31112;SDS011;17763;48.730;9.136;2023-12-22T05:04:20;3.60;;;1.17;;
31112;SDS011;17763;48.730;9.136;2023-12-22T05:06:47;7.47;;;1.50;;
31112;SDS011;17763;48.730;9.136;2023-12-22T05:09:13;7.70;;;2.00;;
31112;SDS011;17763;48.730;9.136;2023-12-22T05:11:38;12.95;;;3.03;;
31112;SDS011;17763;48.730;9.136;2023-12-22T05:14:04;15.25;;;4.25;;
31112;SDS011;17763;48.730;9.136;2023-12-22T05:16:29;7.82;;;1.83;;
31112;SDS011;17763;48.730;9.136;2023-12-22T05:18:57;8.93;;;2.60;;
31112;SDS011;17763;48.730;9.136;2023-12-22T05:21:23;10.27;;;2.97;;
31112;SDS011;17763;48.730;9.136;2023-12-22T05:23:49;7.63;;;1.90;;
31112;SDS011;17763;48.730;9.136;2023-12-22T05:26:18;27.38;;;6.38;;
31112;SDS011;17763;48.730;9.136;2023-12-22T05:28:45;10.90;;;2.10;;
31112;SDS011;17763;48.730;9.136;2023-12-22T05:31:11;9.20;;;2.60;;
31112;SDS011;17763;48.730;9.136;2023-12-22T05:33:37;6.82;;;2.22;;
31112;SDS011;17763;48.730;9.136;2023-12-22T05:36:03;11.38;;;2.70;;
31112;SDS011;17763;48.730;9.136;2023-12-22T05:38:29;9.05;;;2.15;;
31112;SDS011;17763;48.730;9.136;2023-12-22T05:40:57;5.93;;;2.58;;
31112;SDS011;17763;48.730;9.136;2023-12-22T05:43:22;9.00;;;2.50;;
31112;SDS011;17763;48.730;9.136;2023-12-22T05:45:48;10.63;;;2.08;;
31112;SDS011;17763;48.730;9.136;2023-12-22T05:48:14;6.05;;;1.88;;
31112;SDS011;17763;48.730;9.136;2023-12-22T05:50:39;9.95;;;2.50;;
31112;SDS011;17763;48.730;9.136;2023-12-22T05:53:05;8.43;;;2.20;;
31112;SDS011;17763;48.730;9.136;2023-12-22T05:55:30;10.15;;;2.33;;
31112;SDS011;17763;48.730;9.136;2023-12-22T05:57:59;7.15;;;1.70;;
31112;SDS011;17763;48.730;9.136;2023-12-22T06:00:24;8.57;;;1.95;;
31112;SDS011;17763;48.730;9.136;2023-12-22T06:02:51;17.00;;;2.97;;
31112;SDS011;17763;48.730;9.136;2023-12-22T06:05:16;8.70;;;1.88;;
31112;SDS011;17763;48.730;9.136;2023-12-22T06:07:42;11.25;;;2.35;;
31112;SDS011;17763;48.730;9.136;2023-12-22T06:10:08;7.00;;;2.38;;
31112;SDS011;17763;48.730;9.136;2023-12-22T06:12:36;8.10;;;2.63;;
31112;SDS011;17763;48.730;9.136;2023-12-22T06:15:02;11.05;;;2.65;;
31112;SDS011;17763;48.730;9.136;2023-12-22T06:17:28;10.98;;;2.40;;
31112;SDS011;17763;48.730;9.136;2023-12-22T06:19:53;15.15;;;2.33;;
31112;SDS011;17763;48.730;9.136;2023-12-22T06:22:19;13.98;;;3.17;;
31112;SDS011;17763;48.730;9.136;2023-12-22T06:24:44;11.02;;;2.45;;
31112;SDS011;17763;48.730;9.136;2023-12-22T06:27:10;9.70;;;2.47;;
31112;SDS011;17763;48.730;9.136;2023-12-22T06:29:36;8.25;;;3.40;;
31112;SDS011;17763;48.730;9.136;2023-12-22T06:32:01;16.65;;;2.42;;
31112;SDS011;17763;48.730;9.136;2023-12-22T06:34:27;7.72;;;2.08;;
31112;SDS011;17763;48.730;9.136;2023-12-22T06:36:53;8.50;;;2.60;;
31112;SDS011;17763;48.730;9.136;2023-12-22T06:39:21;11.93;;;2.55;;
31112;SDS011;17763;48.730;9.136;2023-12-22T06:41:49;9.90;;;2.63;;
31112;SDS011;17763;48.730;9.136;2023-12-22T06:44:15;8.07;;;2.47;;
31112;SDS011;17763;48.730;9.136;2023-12-22T06:46:41;5.40;;;2.03;;
31112;SDS011;17763;48.730;9.136;2023-12-22T06:49:06;11.40;;;2.08;;
31112;SDS011;17763;48.730;9.136;2023-12-22T06:51:32;7.95;;;2.42;;
31112;SDS011;17763;48.730;9.136;2023-12-22T06:54:01;5.35;;;1.73;;
31112;SDS011;17763;48.730;9.136;2023-12-22T06:56:28;6.82;;;1.80;;
31112;SDS011;17763;48.730;9.136;2023-12-22T06:58:56;10.05;;;3.35;;
31112;SDS011;17763;48.730;9.136;2023-12-22T07:01:27;7.38;;;1.70;;
31112;SDS011;17763;48.730;9.136;2023-12-22T07:03:57;5.72;;;1.60;;
31112;SDS011;17763;48.730;9.136;2023-12-22T07:06:25;16.80;;;3.58;;
31112;SDS011;17763;48.730;9.136;2023-12-22T07:11:40;9.38;;;1.90;;
31112;SDS011;17763;48.730;9.136;2023-12-22T07:14:07;10.70;;;3.10;;
31112;SDS011;17763;48.730;9.136;2023-12-22T07:16:34;6.10;;;1.88;;
31112;SDS011;17763;48.730;9.136;2023-12-22T07:19:00;9.98;;;2.20;;
31112;SDS011;17763;48.730;9.136;2023-12-22T07:21:26;10.20;;;3.22;;
31112;SDS011;17763;48.730;9.136;2023-12-22T07:23:52;12.32;;;2.67;;
31112;SDS011;17763;48.730;9.136;2023-12-22T07:26:17;11.57;;;2.30;;
31112;SDS011;17763;48.730;9.136;2023-12-22T07:28:45;9.20;;;1.95;;
31112;SDS011;17763;48.730;9.136;2023-12-22T07:31:11;7.55;;;2.90;;
31112;SDS011;17763;48.730;9.136;2023-12-22T07:33:42;9.27;;;2.13;;
31112;SDS011;17763;48.730;9.136;2023-12-22T07:36:08;7.35;;;2.53;;
31112;SDS011;17763;48.730;9.136;2023-12-22T07:38:35;7.07;;;1.70;;
31112;SDS011;17763;48.730;9.136;2023-12-22T07:41:01;7.43;;;1.80;;
31112;SDS011;17763;48.730;9.136;2023-12-22T07:43:26;10.52;;;2.55;;
31112;SDS011;17763;48.730;9.136;2023-12-22T07:45:54;8.43;;;2.35;;
31112;SDS011;17763;48.730;9.136;2023-12-22T07:48:20;10.55;;;2.42;;
31112;SDS011;17763;48.730;9.136;2023-12-22T07:50:48;6.53;;;1.75;;
31112;SDS011;17763;48.730;9.136;2023-12-22T07:53:13;7.45;;;2.00;;
31112;SDS011;17763;48.730;9.136;2023-12-22T07:55:39;7.15;;;1.83;;
31112;SDS011;17763;48.730;9.136;2023-12-22T07:58:05;6.63;;;1.88;;
31112;SDS011;17763;48.730;9.136;2023-12-22T08:00:30;5.15;;;1.65;;
31112;SDS011;17763;48.730;9.136;2023-12-22T08:03:00;9.05;;;2.00;;
31112;SDS011;17763;48.730;9.136;2023-12-22T08:05:26;5.45;;;1.83;;
31112;SDS011;17763;48.730;9.136;2023-12-22T08:07:51;8.73;;;2.10;;
31112;SDS011;17763;48.730;9.136;2023-12-22T08:10:17;6.88;;;2.05;;
31112;SDS011;17763;48.730;9.136;2023-12-22T08:12:43;12.32;;;2.17;;
31112;SDS011;17763;48.730;9.136;2023-12-22T08:15:09;8.70;;;2.50;;
31112;SDS011;17763;48.730;9.136;2023-12-22T08:17:37;8.25;;;2.00;;
31112;SDS011;17763;48.730;9.136;2023-12-22T08:20:10;10.57;;;3.00;;
31112;SDS011;17763;48.730;9.136;2023-12-22T08:22:36;10.40;;;2.30;;
31112;SDS011;17763;48.730;9.136;2023-12-22T08:25:01;19.45;;;3.85;;
31112;SDS011;17763;48.730;9.136;2023-12-22T08:27:27;12.70;;;2.58;;
31112;SDS011;17763;48.730;9.136;2023-12-22T08:29:53;11.25;;;3.90;;
31112;SDS011;17763;48.730;9.136;2023-12-22T08:32:18;11.38;;;2.97;;
31112;SDS011;17763;48.730;9.136;2023-12-22T08:34:44;13.93;;;3.03;;
31112;SDS011;17763;48.730;9.136;2023-12-22T08:37:10;12.40;;;3.00;;
31112;SDS011;17763;48.730;9.136;2023-12-22T08:39:36;10.73;;;3.35;;
31112;SDS011;17763;48.730;9.136;2023-12-22T08:42:04;11.40;;;2.67;;
31112;SDS011;17763;48.730;9.136;2023-12-22T08:44:29;19.48;;;3.25;;
31112;SDS011;17763;48.730;9.136;2023-12-22T08:46:55;11.65;;;4.18;;
31112;SDS011;17763;48.730;9.136;2023-12-22T08:49:21;18.05;;;3.08;;
31112;SDS011;17763;48.730;9.136;2023-12-22T08:51:46;8.68;;;2.40;;
31112;SDS011;17763;48.730;9.136;2023-12-22T08:54:15;9.13;;;2.33;;
31112;SDS011;17763;48.730;9.136;2023-12-22T08:56:40;6.90;;;1.98;;
31112;SDS011;17763;48.730;9.136;2023-12-22T08:59:06;33.28;;;6.88;;
31112;SDS011;17763;48.730;9.136;2023-12-22T09:01:34;10.70;;;2.15;;
31112;SDS011;17763;48.730;9.136;2023-12-22T09:04:02;7.65;;;2.45;;
31112;SDS011;17763;48.730;9.136;2023-12-22T09:06:28;12.05;;;3.40;;
31112;SDS011;17763;48.730;9.136;2023-12-22T09:08:53;23.52;;;5.95;;
31112;SDS011;17763;48.730;9.136;2023-12-22T09:11:19;14.98;;;4.10;;
31112;SDS011;17763;48.730;9.136;2023-12-22T09:13:46;8.90;;;2.38;;
31112;SDS011;17763;48.730;9.136;2023-12-22T09:16:11;12.57;;;2.83;;
31112;SDS011;17763;48.730;9.136;2023-12-22T09:18:40;15.40;;;3.63;;
31112;SDS011;17763;48.730;9.136;2023-12-22T09:21:07;14.48;;;2.70;;
31112;SDS011;17763;48.730;9.136;2023-12-22T09:23:32;10.95;;;2.90;;
31112;SDS011;17763;48.730;9.136;2023-12-22T09:26:00;12.00;;;3.55;;
31112;SDS011;17763;48.730;9.136;2023-12-22T09:28:26;12.13;;;3.58;;
31112;SDS011;17763;48.730;9.136;2023-12-22T09:30:52;19.73;;;4.20;;
31112;SDS011;17763;48.730;9.136;2023-12-22T09:33:17;15.30;;;3.95;;
31112;SDS011;17763;48.730;9.136;2023-12-22T09:35:43;16.17;;;3.22;;
31112;SDS011;17763;48.730;9.136;2023-12-22T09:38:10;10.48;;;3.45;;
31112;SDS011;17763;48.730;9.136;2023-12-22T09:40:37;13.35;;;3.10;;
31112;SDS011;17763;48.730;9.136;2023-12-22T09:43:03;14.07;;;3.20;;
31112;SDS011;17763;48.730;9.136;2023-12-22T09:45:32;13.80;;;3.83;;
31112;SDS011;17763;48.730;9.136;2023-12-22T09:47:59;15.15;;;3.00;;
31112;SDS011;17763;48.730;9.136;2023-12-22T09:50:26;16.02;;;3.28;;
31112;SDS011;17763;48.730;9.136;2023-12-22T09:52:55;19.95;;;4.38;;
31112;SDS011;17763;48.730;9.136;2023-12-22T09:55:22;17.40;;;2.97;;
31112;SDS011;17763;48.730;9.136;2023-12-22T09:57:48;17.23;;;3.25;;
31112;SDS011;17763;48.730;9.136;2023-12-22T10:00:15;12.55;;;3.00;;
31112;SDS011;17763;48.730;9.136;2023-12-22T10:02:42;11.55;;;2.45;;
31112;SDS011;17763;48.730;9.136;2023-12-22T10:05:10;15.05;;;3.92;;
31112;SDS011;17763;48.730;9.136;2023-12-22T10:07:38;12.95;;;4.03;;
31112;SDS011;17763;48.730;9.136;2023-12-22T10:10:05;14.73;;;3.28;;
31112;SDS011;17763;48.730;9.136;2023-12-22T10:12:34;14.02;;;2.97;;
31112;SDS011;17763;48.730;9.136;2023-12-22T10:15:01;11.45;;;3.60;;
31112;SDS011;17763;48.730;9.136;2023-12-22T10:17:28;10.93;;;3.08;;
31112;SDS011;17763;48.730;9.136;2023-12-22T10:19:55;19.50;;;3.03;;
31112;SDS011;17763;48.730;9.136;2023-12-22T10:22:20;18.85;;;3.53;;
31112;SDS011;17763;48.730;9.136;2023-12-22T10:24:48;12.55;;;3.17;;
31112;SDS011;17763;48.730;9.136;2023-12-22T10:27:15;10.68;;;2.95;;
31112;SDS011;17763;48.730;9.136;2023-12-22T10:32:16;14.65;;;3.38;;
31112;SDS011;17763;48.730;9.136;2023-12-22T10:34:42;13.13;;;2.97;;
31112;SDS011;17763;48.730;9.136;2023-12-22T10:37:07;19.70;;;3.40;;
31112;SDS011;17763;48.730;9.136;2023-12-22T10:39:35;20.42;;;4.15;;
31112;SDS011;17763;48.730;9.136;2023-12-22T10:42:02;15.43;;;3.67;;
31112;SDS011;17763;48.730;9.136;2023-12-22T10:44:28;13.85;;;3.25;;
31112;SDS011;17763;48.730;9.136;2023-12-22T10:46:54;16.42;;;3.38;;
31112;SDS011;17763;48.730;9.136;2023-12-22T10:49:23;22.13;;;4.88;;
31112;SDS011;17763;48.730;9.136;2023-12-22T10:51:50;15.10;;;3.90;;
31112;SDS011;17763;48.730;9.136;2023-12-22T10:54:16;9.48;;;2.55;;
31112;SDS011;17763;48.730;9.136;2023-12-22T10:56:42;11.95;;;3.75;;
31112;SDS011;17763;48.730;9.136;2023-12-22T10:59:08;8.10;;;2.63;;
31112;SDS011;17763;48.730;9.136;2023-12-22T11:01:38;4.38;;;2.15;;
31112;SDS011;17763;48.730;9.136;2023-12-22T11:04:07;10.95;;;2.53;;
31112;SDS011;17763;48.730;9.136;2023-12-22T11:06:41;6.32;;;1.60;;
31112;SDS011;17763;48.730;9.136;2023-12-22T11:09:09;9.45;;;2.92;;
31112;SDS011;17763;48.730;9.136;2023-12-22T11:11:36;6.03;;;1.90;;
31112;SDS011;17763;48.730;9.136;2023-12-22T11:14:03;6.28;;;2.03;;
31112;SDS011;17763;48.730;9.136;2023-12-22T11:16:31;4.25;;;1.48;;
31112;SDS011;17763;48.730;9.136;2023-12-22T11:19:03;6.03;;;1.75;;
31112;SDS011;17763;48.730;9.136;2023-12-22T11:21:29;4.50;;;1.73;;
31112;SDS011;17763;48.730;9.136;2023-12-22T11:23:56;4.80;;;1.50;;
31112;SDS011;17763;48.730;9.136;2023-12-22T11:26:22;5.38;;;1.65;;
31112;SDS011;17763;48.730;9.136;2023-12-22T11:28:51;7.43;;;1.88;;
31112;SDS011;17763;48.730;9.136;2023-12-22T11:31:17;4.43;;;1.40;;
31112;SDS011;17763;48.730;9.136;2023-12-22T11:33:54;6.65;;;1.95;;
31112;SDS011;17763;48.730;9.136;2023-12-22T11:36:24;6.63;;;1.70;;
31112;SDS011;17763;48.730;9.136;2023-12-22T11:38:53;6.53;;;2.15;;
31112;SDS011;17763;48.730;9.136;2023-12-22T11:41:27;5.32;;;1.60;;
31112;SDS011;17763;48.730;9.136;2023-12-22T11:43:59;5.38;;;1.20;;
31112;SDS011;17763;48.730;9.136;2023-12-22T11:46:28;4.10;;;1.20;;
31112;SDS011;17763;48.730;9.136;2023-12-22T11:48:59;2.45;;;1.10;;
31112;SDS011;17763;48.730;9.136;2023-12-22T11:51:25;6.95;;;1.50;;
31112;SDS011;17763;48.730;9.136;2023-12-22T11:53:57;1.98;;;1.50;;
31112;SDS011;17763;48.730;9.136;2023-12-22T11:56:22;3.88;;;1.40;;
31112;SDS011;17763;48.730;9.136;2023-12-22T11:58:51;2.17;;;1.20;;
31112;SDS011;17763;48.730;9.136;2023-12-22T12:01:19;4.15;;;1.80;;
31112;SDS011;17763;48.730;9.136;2023-12-22T12:03:53;5.97;;;1.67;;
31112;SDS011;17763;48.730;9.136;2023-12-22T12:08:56;4.03;;;1.42;;
31112;SDS011;17763;48.730;9.136;2023-12-22T12:11:23;2.42;;;1.15;;
31112;SDS011;17763;48.730;9.136;2023-12-22T12:13:49;4.85;;;1.35;;
31112;SDS011;17763;48.730;9.136;2023-12-22T12:16:19;2.80;;;1.23;;
31112;SDS011;17763;48.730;9.136;2023-12-22T12:18:46;5.25;;;1.88;;
31112;SDS011;17763;48.730;9.136;2023-12-22T12:21:12;2.05;;;1.10;;
31112;SDS011;17763;48.730;9.136;2023-12-22T12:23:38;2.45;;;1.17;;
31112;SDS011;17763;48.730;9.136;2023-12-22T12:26:06;2.85;;;1.35;;
31112;SDS011;17763;48.730;9.136;2023-12-22T12:28:33;2.13;;;1.38;;
31112;SDS011;17763;48.730;9.136;2023-12-22T12:31:04;1.52;;;0.90;;
31112;SDS011;17763;48.730;9.136;2023-12-22T12:33:31;3.03;;;0.90;;
31112;SDS011;17763;48.730;9.136;2023-12-22T12:35:58;1.52;;;0.77;;
31112;SDS011;17763;48.730;9.136;2023-12-22T12:38:36;2.03;;;0.93;;
31112;SDS011;17763;48.730;9.136;2023-12-22T12:41:07;4.25;;;0.90;;
31112;SDS011;17763;48.730;9.136;2023-12-22T12:43:36;3.65;;;0.90;;
31112;SDS011;17763;48.730;9.136;2023-12-22T12:46:13;1.77;;;0.88;;
31112;SDS011;17763;48.730;9.136;2023-12-22T12:48:40;1.65;;;0.88;;
31112;SDS011;17763;48.730;9.136;2023-12-22T12:51:06;1.92;;;1.10;;
31112;SDS011;17763;48.730;9.136;2023-12-22T12:53:33;1.65;;;1.00;;
31112;SDS011;17763;48.730;9.136;2023-12-22T12:55:59;1.50;;;0.80;;
31112;SDS011;17763;48.730;9.136;2023-12-22T12:58:29;5.03;;;2.03;;
31112;SDS011;17763;48.730;9.136;2023-12-22T13:01:05;1.08;;;0.70;;
31112;SDS011;17763;48.730;9.136;2023-12-22T13:03:33;1.92;;;0.80;;
31112;SDS011;17763;48.730;9.136;2023-12-22T13:06:10;0.82;;;0.70;;
31112;SDS011;17763;48.730;9.136;2023-12-22T13:08:35;2.53;;;0.98;;
31112;SDS011;17763;48.730;9.136;2023-12-22T13:11:02;2.03;;;0.77;;
31112;SDS011;17763;48.730;9.136;2023-12-22T13:13:28;3.28;;;0.60;;
31112;SDS011;17763;48.730;9.136;2023-12-22T13:15:54;2.50;;;0.90;;
31112;SDS011;17763;48.730;9.136;2023-12-22T13:18:19;0.90;;;0.82;;
31112;SDS011;17763;48.730;9.136;2023-12-22T13:20:47;0.82;;;0.60;;
31112;SDS011;17763;48.730;9.136;2023-12-22T13:23:16;1.80;;;0.80;;
31112;SDS011;17763;48.730;9.136;2023-12-22T13:25:43;1.50;;;0.85;;
31112;SDS011;17763;48.730;9.136;2023-12-22T13:28:09;1.77;;;0.60;;
31112;SDS011;17763;48.730;9.136;2023-12-22T13:30:35;1.00;;;0.60;;
31112;SDS011;17763;48.730;9.136;2023-12-22T13:33:04;3.08;;;1.30;;
31112;SDS011;17763;48.730;9.136;2023-12-22T13:35:29;4.32;;;0.60;;
31112;SDS011;17763;48.730;9.136;2023-12-22T13:37:55;0.68;;;0.68;;
31112;SDS011;17763;48.730;9.136;2023-12-22T13:40:22;2.33;;;0.90;;
31112;SDS011;17763;48.730;9.136;2023-12-22T13:42:55;0.50;;;0.50;;
31112;SDS011;17763;48.730;9.136;2023-12-22T13:45:22;0.50;;;0.50;;
31112;SDS011;17763;48.730;9.136;2023-12-22T13:47:48;0.88;;;0.82;;
31112;SDS011;17763;48.730;9.136;2023-12-22T13:50:17;1.20;;;0.70;;
31112;SDS011;17763;48.730;9.136;2023-12-22T13:52:44;0.43;;;0.43;;
31112;SDS011;17763;48.730;9.136;2023-12-22T13:55:13;0.63;;;0.40;;
31112;SDS011;17763;48.730;9.136;2023-12-22T13:57:40;1.13;;;0.45;;
31112;SDS011;17763;48.730;9.136;2023-12-22T14:00:27;0.60;;;0.47;;
31112;SDS011;17763;48.730;9.136;2023-12-22T14:02:54;0.30;;;0.30;;
31112;SDS011;17763;48.730;9.136;2023-12-22T14:05:19;0.30;;;0.30;;
31112;SDS011;17763;48.730;9.136;2023-12-22T14:07:45;0.50;;;0.50;;
31112;SDS011;17763;48.730;9.136;2023-12-22T14:10:11;0.47;;;0.30;;
31112;SDS011;17763;48.730;9.136;2023-12-22T14:12:38;0.47;;;0.47;;
31112;SDS011;17763;48.730;9.136;2023-12-22T14:15:13;0.70;;;0.50;;
31112;SDS011;17763;48.730;9.136;2023-12-22T14:17:39;0.50;;;0.50;;
31112;SDS011;17763;48.730;9.136;2023-12-22T14:20:07;0.45;;;0.40;;
31112;SDS011;17763;48.730;9.136;2023-12-22T14:22:36;0.35;;;0.30;;
31112;SDS011;17763;48.730;9.136;2023-12-22T14:25:04;0.63;;;0.40;;
31112;SDS011;17763;48.730;9.136;2023-12-22T14:27:30;0.30;;;0.30;;
31112;SDS011;17763;48.730;9.136;2023-12-22T14:29:56;0.57;;;0.38;;
31112;SDS011;17763;48.730;9.136;2023-12-22T14:32:22;0.68;;;0.32;;
31112;SDS011;17763;48.730;9.136;2023-12-22T14:34:49;0.30;;;0.30;;
31112;SDS011;17763;48.730;9.136;2023-12-22T14:37:14;0.30;;;0.30;;
31112;SDS011;17763;48.730;9.136;2023-12-22T14:39:44;2.13;;;0.90;;
31112;SDS011;17763;48.730;9.136;2023-12-22T14:42:12;1.70;;;1.13;;
31112;SDS011;17763;48.730;9.136;2023-12-22T14:44:38;2.90;;;0.50;;
31112;SDS011;17763;48.730;9.136;2023-12-22T14:47:07;0.30;;;0.30;;
31112;SDS011;17763;48.730;9.136;2023-12-22T14:49:32;1.25;;;0.50;;
31112;SDS011;17763;48.730;9.136;2023-12-22T14:51:58;1.92;;;0.65;;
31112;SDS011;17763;48.730;9.136;2023-12-22T14:54:25;0.45;;;0.43;;
31112;SDS011;17763;48.730;9.136;2023-12-22T14:56:51;0.60;;;0.50;;